Time;durP1;ratioP1;P1;durP2;ratioP2;P2;SDS_P1;SDS_P2;PMS_P1;PMS_P2;Temp;Humidity;BMP_temperature;BMP_pressure;BME280_temperature;BME280_humidity;BME280_pressure;Samples;Min_cycle;Max_cycle;Signal;HPM_P1;HPM_P2
2021/12/06 00:01:37;;;;;;;11.30;10.30;;;4.30;99.90;;;;;;5071657;28;20224;-66
2021/12/06 00:04:09;;;;;;;11.33;10.53;;;4.30;99.90;;;;;;5072524;28;20185;-66
2021/12/06 00:06:37;;;;;;;12.10;10.90;;;4.30;99.90;;;;;;5071728;28;20620;-66
2021/12/06 00:09:06;;;;;;;11.60;10.70;;;4.30;99.90;;;;;;5073535;28;20170;-65
2021/12/06 00:11:34;;;;;;;12.83;11.73;;;4.30;99.90;;;;;;5058149;28;20183;-64
2021/12/06 00:14:01;;;;;;;11.77;10.77;;;4.30;99.90;;;;;;5051588;28;20179;-65
2021/12/06 00:16:28;;;;;;;10.93;9.97;;;4.40;99.90;;;;;;5054416;28;20790;-64
2021/12/06 00:18:54;;;;;;;10.63;9.83;;;4.40;99.90;;;;;;5053031;28;20553;-65
2021/12/06 00:21:21;;;;;;;11.03;10.13;;;4.40;99.90;;;;;;5054242;28;20186;-66
2021/12/06 00:23:47;;;;;;;11.43;10.33;;;4.40;99.90;;;;;;5053674;28;20261;-65
2021/12/06 00:26:13;;;;;;;12.47;10.30;;;4.30;99.90;;;;;;5053021;28;20191;-64
2021/12/06 00:28:42;;;;;;;10.77;10.00;;;4.20;99.90;;;;;;5054262;28;20186;-64
2021/12/06 00:31:09;;;;;;;11.43;10.63;;;4.30;99.90;;;;;;5052935;28;20175;-64
2021/12/06 00:33:35;;;;;;;10.73;9.93;;;4.30;99.90;;;;;;5053662;28;20193;-64
2021/12/06 00:36:05;;;;;;;10.27;9.53;;;4.30;99.90;;;;;;5052663;28;20219;-64
2021/12/06 00:38:32;;;;;;;11.70;10.80;;;4.30;99.90;;;;;;5053962;28;20652;-65
2021/12/06 00:40:59;;;;;;;12.80;11.63;;;4.30;99.90;;;;;;5053065;28;20178;-63
2021/12/06 00:43:24;;;;;;;11.73;10.73;;;4.40;99.90;;;;;;5066744;28;20260;-66
2021/12/06 00:45:50;;;;;;;11.57;10.67;;;4.30;99.90;;;;;;5072419;28;20201;-65
2021/12/06 00:48:16;;;;;;;12.27;11.27;;;4.30;99.90;;;;;;5070886;28;20208;-64
2021/12/06 00:50:43;;;;;;;11.87;10.87;;;4.20;99.90;;;;;;5072579;28;20177;-65
2021/12/06 00:53:09;;;;;;;12.90;11.63;;;4.20;99.90;;;;;;5070706;28;20205;-65
2021/12/06 00:55:35;;;;;;;11.33;10.53;;;4.10;99.90;;;;;;5070498;28;20240;-66
2021/12/06 00:58:01;;;;;;;11.00;10.10;;;4.00;99.90;;;;;;5072211;28;20226;-66
2021/12/06 01:00:36;;;;;;;12.27;11.20;;;4.00;99.90;;;;;;5064600;28;20274;-65
2021/12/06 01:03:04;;;;;;;11.60;10.50;;;4.00;99.90;;;;;;5050553;28;20189;-65
2021/12/06 01:05:30;;;;;;;10.83;10.03;;;4.00;99.90;;;;;;5052281;28;20373;-64
2021/12/06 01:07:56;;;;;;;10.80;9.87;;;4.00;99.90;;;;;;5052090;28;20265;-65
2021/12/06 01:10:25;;;;;;;11.27;10.37;;;4.00;99.90;;;;;;5053080;28;20179;-65
2021/12/06 01:12:51;;;;;;;11.10;10.20;;;4.00;99.90;;;;;;5050510;28;20809;-65
2021/12/06 01:15:17;;;;;;;11.23;10.33;;;4.00;99.90;;;;;;5053100;28;20237;-65
2021/12/06 01:17:44;;;;;;;12.93;11.60;;;4.00;99.90;;;;;;5051823;28;20175;-65
2021/12/06 01:20:12;;;;;;;12.90;11.87;;;4.00;99.90;;;;;;5053188;28;20178;-65
2021/12/06 01:23:01;;;;;;;11.27;10.27;;;4.10;99.90;;;;;;5051776;28;20528;-65
2021/12/06 01:30:59;;;;;;;10.83;10.03;;;4.10;99.90;;;;;;5053200;28;20637;-64
2021/12/06 01:41:25;;;;;;;11.97;10.87;;;4.20;99.90;;;;;;5054284;28;20186;-65
2021/12/06 01:44:07;;;;;;;11.53;10.43;;;4.30;99.90;;;;;;5051168;28;20170;-64
2021/12/06 01:46:35;;;;;;;11.40;10.37;;;4.30;99.90;;;;;;5059237;28;20703;-65
2021/12/06 01:49:02;;;;;;;11.93;10.83;;;4.30;99.90;;;;;;5055552;28;20277;-65
2021/12/06 01:51:29;;;;;;;12.67;11.60;;;4.20;99.90;;;;;;5051473;28;20190;-66
2021/12/06 01:53:54;;;;;;;13.57;10.83;;;4.20;99.90;;;;;;5052554;28;20198;-64
2021/12/06 01:56:20;;;;;;;11.63;10.50;;;4.20;99.90;;;;;;5071518;28;20190;-66
2021/12/06 01:58:46;;;;;;;14.10;10.43;;;4.10;99.90;;;;;;5069675;28;20595;-65
2021/12/06 02:01:11;;;;;;;11.43;10.43;;;4.10;99.90;;;;;;5071629;28;20170;-64
2021/12/06 02:03:38;;;;;;;11.40;10.50;;;4.10;99.90;;;;;;5068051;28;20178;-64
2021/12/06 02:06:04;;;;;;;10.97;10.17;;;4.10;99.90;;;;;;5070804;28;20280;-64
2021/12/06 02:08:30;;;;;;;11.03;10.13;;;4.10;99.90;;;;;;5069723;28;20329;-62
2021/12/06 02:11:02;;;;;;;11.97;11.07;;;4.10;99.90;;;;;;5071289;28;20686;-65
2021/12/06 02:13:34;;;;;;;12.60;11.60;;;4.00;99.90;;;;;;5069504;28;20229;-65
2021/12/06 02:16:02;;;;;;;12.40;11.50;;;4.00;99.90;;;;;;5071257;28;20725;-65
2021/12/06 02:18:41;;;;;;;11.37;10.47;;;4.00;99.90;;;;;;5069689;28;20660;-65
2021/12/06 02:21:27;;;;;;;11.70;10.73;;;3.90;99.90;;;;;;5071400;28;20661;-66
2021/12/06 02:23:53;;;;;;;11.67;10.67;;;3.90;99.90;;;;;;5070885;28;20174;-65
2021/12/06 02:26:21;;;;;;;11.33;10.43;;;3.90;99.90;;;;;;5075319;28;20193;-65
2021/12/06 02:28:48;;;;;;;11.60;10.57;;;3.90;99.90;;;;;;5073518;28;20261;-66
2021/12/06 02:31:15;;;;;;;11.37;10.30;;;3.90;99.90;;;;;;5075402;28;20232;-65
2021/12/06 02:33:41;;;;;;;11.23;10.43;;;3.90;99.90;;;;;;5073217;28;20166;-64
2021/12/06 02:36:07;;;;;;;11.83;10.93;;;3.80;99.90;;;;;;5078386;22;20241;-64
2021/12/06 02:38:33;;;;;;;11.90;10.97;;;3.80;99.90;;;;;;5036969;28;20172;-65
2021/12/06 02:40:59;;;;;;;13.07;11.87;;;3.90;99.90;;;;;;5054998;28;20177;-64
2021/12/06 02:43:24;;;;;;;16.17;11.20;;;3.90;99.90;;;;;;5054625;28;20171;-65
2021/12/06 02:45:50;;;;;;;11.93;10.73;;;3.90;99.90;;;;;;5056980;28;20173;-65
2021/12/06 02:48:16;;;;;;;11.90;10.90;;;3.90;99.90;;;;;;5074979;28;20166;-65
2021/12/06 02:50:50;;;;;;;12.20;11.27;;;3.90;99.90;;;;;;5073174;28;20229;-65
2021/12/06 02:53:17;;;;;;;11.07;10.20;;;3.90;99.90;;;;;;5072977;28;20178;-64
2021/12/06 02:55:43;;;;;;;11.70;10.73;;;4.00;99.90;;;;;;5074518;28;20201;-63
2021/12/06 02:58:21;;;;;;;12.67;11.50;;;4.00;99.90;;;;;;5073003;28;20547;-65
2021/12/06 03:00:52;;;;;;;11.20;10.40;;;4.00;99.90;;;;;;5076711;28;20172;-65
2021/12/06 03:03:19;;;;;;;11.77;10.83;;;4.00;99.90;;;;;;5072769;28;20269;-64
2021/12/06 03:05:45;;;;;;;12.77;11.47;;;4.00;99.90;;;;;;5074389;28;20170;-65
2021/12/06 03:08:11;;;;;;;16.17;11.47;;;4.10;99.90;;;;;;5072869;28;20193;-64
2021/12/06 03:10:38;;;;;;;12.57;11.40;;;4.20;99.90;;;;;;5074608;28;20171;-65
2021/12/06 03:13:05;;;;;;;12.37;11.03;;;4.10;99.90;;;;;;5059552;28;20190;-64
2021/12/06 03:15:31;;;;;;;12.03;11.13;;;4.10;99.90;;;;;;5054401;28;20202;-67
2021/12/06 03:17:57;;;;;;;13.27;11.80;;;4.10;99.90;;;;;;5055118;28;20198;-65
2021/12/06 03:20:23;;;;;;;13.30;12.10;;;4.10;99.90;;;;;;5054393;28;20181;-64
2021/12/06 03:22:49;;;;;;;11.57;10.77;;;4.10;99.90;;;;;;5054971;28;20171;-64
2021/12/06 03:25:17;;;;;;;11.87;10.73;;;4.10;99.90;;;;;;5054258;28;20229;-65
2021/12/06 03:27:43;;;;;;;12.60;11.50;;;4.20;99.90;;;;;;5059630;28;20197;-64
2021/12/06 03:30:11;;;;;;;12.33;11.23;;;4.20;99.90;;;;;;5074161;28;20280;-64
2021/12/06 03:32:36;;;;;;;12.43;11.43;;;4.10;99.90;;;;;;5072266;28;20209;-65
2021/12/06 03:35:03;;;;;;;12.17;11.23;;;4.20;99.90;;;;;;5073704;28;20237;-64
2021/12/06 03:37:28;;;;;;;12.43;11.40;;;4.20;99.90;;;;;;5072040;28;20205;-64
2021/12/06 03:39:54;;;;;;;11.83;10.83;;;4.20;99.90;;;;;;5073815;28;20172;-65
2021/12/06 03:42:22;;;;;;;11.77;10.83;;;4.20;99.90;;;;;;5072032;28;20174;-64
2021/12/06 03:44:49;;;;;;;12.30;11.13;;;4.20;99.90;;;;;;5073720;28;20184;-64
2021/12/06 03:47:21;;;;;;;13.97;12.67;;;4.30;99.90;;;;;;5054099;28;20264;-64
2021/12/06 03:49:47;;;;;;;11.87;10.90;;;4.30;99.90;;;;;;5073696;28;20200;-64
2021/12/06 03:52:14;;;;;;;13.53;10.67;;;4.30;99.90;;;;;;5072074;28;20187;-65
2021/12/06 03:54:41;;;;;;;11.83;10.83;;;4.30;99.90;;;;;;5073812;28;20201;-64
2021/12/06 03:57:07;;;;;;;11.50;10.57;;;4.30;99.90;;;;;;5071734;28;20251;-64
2021/12/06 03:59:34;;;;;;;11.67;10.60;;;4.30;99.90;;;;;;5073581;28;20545;-66
2021/12/06 04:02:00;;;;;;;12.10;11.10;;;4.40;99.90;;;;;;5071798;28;20181;-65
2021/12/06 04:04:26;;;;;;;11.47;10.63;;;4.30;99.90;;;;;;5073138;28;20695;-64
2021/12/06 04:06:53;;;;;;;11.43;10.43;;;4.30;99.90;;;;;;5071861;28;20213;-65
2021/12/06 04:09:18;;;;;;;11.90;10.83;;;4.30;99.90;;;;;;5073390;28;20542;-65
2021/12/06 04:11:45;;;;;;;11.87;10.97;;;4.30;99.90;;;;;;5071547;28;20182;-65
2021/12/06 04:14:12;;;;;;;11.87;10.90;;;4.20;99.90;;;;;;5073163;28;20190;-64
2021/12/06 04:16:37;;;;;;;13.07;11.97;;;4.10;99.90;;;;;;5060430;28;20202;-64
2021/12/06 04:19:05;;;;;;;13.07;11.97;;;4.00;99.90;;;;;;5053176;28;20185;-64
2021/12/06 04:21:30;;;;;;;13.57;12.40;;;4.00;99.90;;;;;;5054409;28;20287;-64
2021/12/06 04:23:56;;;;;;;13.63;12.40;;;3.90;99.90;;;;;;5052680;28;20260;-65
2021/12/06 04:26:22;;;;;;;12.53;11.50;;;3.90;99.90;;;;;;5054104;28;20678;-64
2021/12/06 04:28:57;;;;;;;12.77;11.77;;;3.90;99.90;;;;;;5053007;28;20175;-64
2021/12/06 04:31:29;;;;;;;11.87;10.83;;;3.80;99.90;;;;;;5054160;28;20175;-65
2021/12/06 04:33:55;;;;;;;12.80;11.70;;;3.70;99.90;;;;;;5052422;28;20648;-65
2021/12/06 04:36:21;;;;;;;12.60;11.57;;;3.70;99.90;;;;;;5060217;28;20263;-65
2021/12/06 04:38:46;;;;;;;12.77;11.33;;;3.60;99.90;;;;;;5072770;28;20170;-64
2021/12/06 04:41:12;;;;;;;11.80;10.87;;;3.50;99.90;;;;;;5053321;28;20273;-65
2021/12/06 04:43:38;;;;;;;13.50;12.23;;;3.40;99.90;;;;;;5072403;28;20170;-65
2021/12/06 04:46:03;;;;;;;13.23;11.77;;;3.30;99.90;;;;;;5070080;28;20248;-65
2021/12/06 04:48:29;;;;;;;14.20;13.00;;;3.30;99.90;;;;;;5072714;28;20178;-66
2021/12/06 04:50:55;;;;;;;13.03;11.90;;;3.10;99.90;;;;;;5070841;28;20185;-63
2021/12/06 04:53:27;;;;;;;13.27;11.97;;;3.10;99.90;;;;;;5072405;28;20182;-65
2021/12/06 04:56:21;;;;;;;15.57;13.87;;;3.10;99.90;;;;;;5070806;28;20259;-64
2021/12/06 04:59:19;;;;;;;18.90;13.20;;;3.10;99.90;;;;;;5032510;28;20182;-64
2021/12/06 05:01:46;;;;;;;14.63;13.13;;;3.20;99.90;;;;;;5040628;28;20724;-65
2021/12/06 05:04:24;;;;;;;14.70;13.30;;;3.30;99.90;;;;;;5054012;28;20264;-64
2021/12/06 05:06:55;;;;;;;14.57;13.17;;;3.30;99.90;;;;;;5064599;28;20233;-64
2021/12/06 05:09:36;;;;;;;14.13;12.83;;;3.20;99.90;;;;;;5052444;28;20224;-64
2021/12/06 05:12:02;;;;;;;15.23;12.17;;;3.20;99.90;;;;;;5035640;28;20699;-63
2021/12/06 05:14:28;;;;;;;14.87;13.37;;;3.20;99.90;;;;;;5052541;28;20242;-65
2021/12/06 05:16:54;;;;;;;14.47;12.20;;;3.20;99.90;;;;;;5053220;28;20230;-64
2021/12/06 05:19:20;;;;;;;15.17;13.43;;;3.20;99.90;;;;;;5052201;28;20232;-65
2021/12/06 05:21:46;;;;;;;14.27;12.87;;;3.10;99.90;;;;;;5053100;28;20550;-65
2021/12/06 05:24:15;;;;;;;14.40;12.90;;;3.20;99.90;;;;;;5052191;28;20171;-64
2021/12/06 05:26:40;;;;;;;14.63;13.07;;;3.20;99.90;;;;;;5052936;28;20232;-65
2021/12/06 05:29:07;;;;;;;14.00;12.73;;;3.20;99.90;;;;;;5052009;28;20593;-65
2021/12/06 05:31:38;;;;;;;13.33;12.13;;;3.10;99.90;;;;;;5053137;28;20542;-65
2021/12/06 05:34:09;;;;;;;14.40;13.00;;;3.10;99.90;;;;;;5051613;28;20186;-64
2021/12/06 05:36:35;;;;;;;15.03;13.57;;;3.00;99.90;;;;;;5052968;28;20217;-66
2021/12/06 05:39:00;;;;;;;17.20;13.03;;;3.00;99.90;;;;;;5051887;28;20571;-65
2021/12/06 05:41:26;;;;;;;15.73;12.67;;;2.90;99.90;;;;;;5064113;28;20571;-65
2021/12/06 05:43:52;;;;;;;20.20;17.40;;;3.00;99.90;;;;;;5071361;28;20252;-64
2021/12/06 05:46:18;;;;;;;19.80;17.67;;;3.10;99.90;;;;;;5070077;28;20208;-64
2021/12/06 05:48:44;;;;;;;15.80;14.33;;;3.10;99.90;;;;;;5071864;28;20170;-65
2021/12/06 05:51:10;;;;;;;15.13;13.60;;;3.10;99.90;;;;;;5066169;28;20260;-65
2021/12/06 05:53:35;;;;;;;14.27;12.93;;;3.10;99.90;;;;;;5051248;28;20322;-64
2021/12/06 05:56:03;;;;;;;15.30;13.90;;;3.10;99.90;;;;;;5051110;28;20211;-64
2021/12/06 05:58:31;;;;;;;15.20;13.70;;;3.00;99.90;;;;;;5056302;28;20189;-64
2021/12/06 06:00:57;;;;;;;18.43;14.47;;;3.00;99.90;;;;;;5071448;28;20216;-64
2021/12/06 06:03:23;;;;;;;14.27;12.97;;;3.00;99.90;;;;;;5069624;28;20178;-63
2021/12/06 06:05:49;;;;;;;15.93;14.30;;;2.90;99.90;;;;;;5071172;28;20182;-63
2021/12/06 06:08:16;;;;;;;14.40;13.03;;;2.80;99.90;;;;;;5069663;28;20269;-64
2021/12/06 06:10:42;;;;;;;19.67;14.90;;;2.80;99.90;;;;;;5071452;28;20223;-64
2021/12/06 06:13:08;;;;;;;16.23;14.73;;;2.80;99.90;;;;;;5069682;28;20183;-65
2021/12/06 06:15:35;;;;;;;16.57;14.90;;;2.70;99.90;;;;;;5051305;28;20206;-65
2021/12/06 06:18:02;;;;;;;16.07;14.57;;;2.70;99.90;;;;;;5051216;28;20550;-63
2021/12/06 06:20:33;;;;;;;17.20;14.03;;;2.60;99.90;;;;;;5069775;28;20217;-63
2021/12/06 06:22:59;;;;;;;14.33;13.00;;;2.60;99.90;;;;;;5053357;28;20180;-63
2021/12/06 06:25:25;;;;;;;16.70;14.37;;;2.50;99.90;;;;;;5069829;28;20194;-64
2021/12/06 06:27:50;;;;;;;15.20;13.57;;;2.60;99.90;;;;;;5070998;28;20194;-64
2021/12/06 06:30:16;;;;;;;15.80;14.30;;;2.60;99.90;;;;;;5069678;28;20656;-65
2021/12/06 06:32:44;;;;;;;14.97;13.57;;;2.70;99.90;;;;;;5070901;28;20253;-66
2021/12/06 06:35:12;;;;;;;15.17;13.73;;;2.60;99.90;;;;;;5069917;28;20220;-64
2021/12/06 06:37:38;;;;;;;17.27;14.17;;;2.60;99.90;;;;;;5071054;28;20259;-64
2021/12/06 06:40:04;;;;;;;16.50;14.50;;;2.70;99.90;;;;;;5069230;28;20190;-64
2021/12/06 06:42:30;;;;;;;16.97;15.13;;;2.70;99.90;;;;;;5070876;28;20534;-64
2021/12/06 06:44:56;;;;;;;16.13;14.33;;;2.80;99.90;;;;;;5058940;28;20191;-64
2021/12/06 06:47:22;;;;;;;20.10;14.60;;;2.80;99.90;;;;;;5050964;28;20679;-64
2021/12/06 06:49:48;;;;;;;17.13;15.43;;;2.90;99.90;;;;;;5051817;28;20187;-65
2021/12/06 06:52:15;;;;;;;21.63;15.47;;;2.90;99.90;;;;;;5034641;28;20179;-64
2021/12/06 06:54:41;;;;;;;15.53;13.53;;;2.90;99.90;;;;;;5052830;28;20198;-64
2021/12/06 06:57:07;;;;;;;15.50;14.07;;;2.90;99.90;;;;;;5070312;28;20194;-65
2021/12/06 06:59:32;;;;;;;17.03;15.23;;;2.90;99.90;;;;;;5065881;28;20186;-65
2021/12/06 07:01:58;;;;;;;15.63;14.03;;;2.90;99.90;;;;;;5068958;28;20221;-64
2021/12/06 07:04:24;;;;;;;16.03;14.53;;;2.90;99.90;;;;;;5070307;28;20185;-65
2021/12/06 07:06:51;;;;;;;14.23;12.83;;;2.90;99.90;;;;;;5069103;28;20379;-64
2021/12/06 07:09:18;;;;;;;14.57;13.13;;;2.80;99.90;;;;;;5072761;28;20196;-64
2021/12/06 07:11:46;;;;;;;15.10;13.47;;;2.90;99.90;;;;;;5072687;28;20188;-65
2021/12/06 07:14:13;;;;;;;14.90;13.43;;;2.90;99.90;;;;;;5074011;28;20170;-65
2021/12/06 07:16:39;;;;;;;15.10;13.63;;;2.90;99.90;;;;;;5072668;28;20198;-63
2021/12/06 07:19:05;;;;;;;13.90;12.63;;;2.90;99.90;;;;;;5074215;28;20244;-64
2021/12/06 07:21:30;;;;;;;15.60;14.10;;;2.90;99.90;;;;;;5072772;28;20178;-65
2021/12/06 07:23:56;;;;;;;17.90;14.53;;;2.90;99.90;;;;;;5062798;28;20430;-65
2021/12/06 07:26:23;;;;;;;15.83;14.27;;;3.00;99.90;;;;;;5054809;28;20203;-65
2021/12/06 07:28:51;;;;;;;16.97;15.00;;;3.00;99.90;;;;;;5054033;28;20175;-65
2021/12/06 07:31:18;;;;;;;17.30;14.80;;;3.10;99.90;;;;;;5055084;28;20214;-65
2021/12/06 07:33:47;;;;;;;15.10;13.63;;;3.10;99.90;;;;;;5053882;28;20202;-65
2021/12/06 07:36:13;;;;;;;14.77;13.53;;;3.20;99.90;;;;;;5054677;28;20233;-64
2021/12/06 07:38:41;;;;;;;15.23;13.87;;;3.20;99.90;;;;;;5053831;28;20183;-65
2021/12/06 07:41:11;;;;;;;16.07;14.57;;;3.30;99.90;;;;;;5054996;28;20175;-65
2021/12/06 07:43:38;;;;;;;18.90;17.30;;;3.30;99.90;;;;;;5035759;28;20261;-64
2021/12/06 07:46:05;;;;;;;15.90;14.50;;;3.30;99.90;;;;;;5036588;28;20237;-64
2021/12/06 07:48:31;;;;;;;16.00;14.73;;;3.30;99.90;;;;;;5053957;28;20656;-64
2021/12/06 07:50:59;;;;;;;16.40;14.63;;;3.30;99.90;;;;;;5054454;28;20178;-65
2021/12/06 07:53:25;;;;;;;15.80;14.30;;;3.40;99.90;;;;;;5053313;28;20197;-65
2021/12/06 07:55:51;;;;;;;19.17;15.30;;;3.40;99.90;;;;;;5054161;28;20207;-65
2021/12/06 07:58:16;;;;;;;14.23;13.03;;;3.40;99.90;;;;;;5036833;28;20704;-64
2021/12/06 08:00:46;;;;;;;15.60;14.00;;;3.50;99.90;;;;;;5053494;28;20182;-65
2021/12/06 08:03:13;;;;;;;15.03;13.53;;;3.50;99.90;;;;;;5053121;28;20261;-65
2021/12/06 08:05:40;;;;;;;15.83;14.43;;;3.60;99.90;;;;;;5053767;28;20183;-65
2021/12/06 08:08:19;;;;;;;15.60;14.30;;;3.60;99.90;;;;;;5053016;28;20178;-64
2021/12/06 08:10:48;;;;;;;16.47;14.93;;;3.60;99.90;;;;;;5070902;28;20216;-63
2021/12/06 08:13:16;;;;;;;16.63;15.23;;;3.70;99.90;;;;;;5071241;28;20178;-65
2021/12/06 08:15:43;;;;;;;16.07;13.93;;;3.70;99.90;;;;;;5073155;28;20593;-64
2021/12/06 08:18:09;;;;;;;13.50;12.30;;;3.70;99.90;;;;;;5071248;28;20216;-64
2021/12/06 08:20:37;;;;;;;13.50;12.00;;;3.70;99.90;;;;;;5072011;28;20185;-65
2021/12/06 08:23:05;;;;;;;16.37;12.53;;;3.60;99.90;;;;;;5068115;28;20205;-64
2021/12/06 08:25:31;;;;;;;16.60;12.73;;;3.60;99.90;;;;;;5064000;28;20182;-64
2021/12/06 08:27:56;;;;;;;13.33;12.17;;;3.60;99.90;;;;;;5052500;28;20278;-62
2021/12/06 08:30:24;;;;;;;13.67;12.40;;;3.50;99.90;;;;;;5052791;28;20179;-64
2021/12/06 08:32:52;;;;;;;14.03;12.67;;;3.60;99.90;;;;;;5052443;28;20193;-66
2021/12/06 08:35:19;;;;;;;14.27;12.53;;;3.60;99.90;;;;;;5052670;28;20645;-65
2021/12/06 08:37:46;;;;;;;12.43;11.53;;;3.60;99.90;;;;;;5053015;28;20218;-65
2021/12/06 08:40:13;;;;;;;13.33;12.10;;;3.70;99.90;;;;;;5052688;28;20187;-65
2021/12/06 08:42:39;;;;;;;14.27;13.00;;;3.70;99.90;;;;;;5053686;28;20175;-65
2021/12/06 08:45:06;;;;;;;14.80;12.83;;;3.80;99.90;;;;;;5052506;28;20174;-65
2021/12/06 08:47:32;;;;;;;18.47;15.13;;;4.10;99.90;;;;;;5060169;28;20202;-66
2021/12/06 08:49:57;;;;;;;17.57;15.77;;;4.40;99.90;;;;;;5072278;28;20179;-65
2021/12/06 08:52:23;;;;;;;22.97;17.10;;;4.70;99.90;;;;;;5066610;28;20191;-65
2021/12/06 08:54:49;;;;;;;17.83;16.10;;;5.20;99.90;;;;;;5052616;28;20202;-65
2021/12/06 08:57:15;;;;;;;17.63;15.60;;;5.60;99.90;;;;;;5053461;28;20210;-65
2021/12/06 08:59:41;;;;;;;19.43;17.43;;;6.00;99.90;;;;;;5063320;28;20174;-65
2021/12/06 09:02:07;;;;;;;15.73;14.17;;;6.10;99.90;;;;;;5055024;28;20185;-65
2021/12/06 09:04:37;;;;;;;20.33;15.67;;;5.90;99.90;;;;;;5032377;28;20175;-64
2021/12/06 09:07:10;;;;;;;16.80;15.07;;;5.70;99.90;;;;;;5033654;28;20575;-65
2021/12/06 09:09:37;;;;;;;19.37;17.27;;;5.50;99.90;;;;;;5072386;28;20276;-66
2021/12/06 09:12:03;;;;;;;24.53;16.67;;;5.20;99.90;;;;;;5071171;28;20201;-63
2021/12/06 09:14:28;;;;;;;20.83;17.27;;;5.20;99.90;;;;;;5070291;28;20237;-65
2021/12/06 09:16:55;;;;;;;23.13;17.07;;;5.30;99.90;;;;;;5073401;28;20662;-65
2021/12/06 09:19:21;;;;;;;32.97;18.37;;;5.30;99.90;;;;;;5054321;28;20190;-65
2021/12/06 09:21:47;;;;;;;27.37;17.60;;;5.30;99.90;;;;;;5034014;28;20416;-65
2021/12/06 09:24:17;;;;;;;29.63;19.90;;;5.40;99.90;;;;;;5068312;28;20198;-65
2021/12/06 09:26:44;;;;;;;32.83;20.47;;;5.40;99.90;;;;;;5053831;28;20209;-65
2021/12/06 09:29:10;;;;;;;29.27;20.37;;;5.60;99.90;;;;;;5055762;28;20191;-65
2021/12/06 09:31:36;;;;;;;34.00;22.60;;;5.60;99.90;;;;;;5033701;28;20624;-65
2021/12/06 09:34:02;;;;;;;26.33;19.00;;;5.60;99.90;;;;;;5065328;28;20184;-65
2021/12/06 09:36:28;;;;;;;39.73;21.07;;;5.60;99.90;;;;;;5071665;28;20217;-64
2021/12/06 09:38:54;;;;;;;33.00;19.57;;;5.70;99.90;;;;;;5070029;28;20178;-64
2021/12/06 09:41:26;;;;;;;39.50;19.73;;;5.70;99.90;;;;;;5071755;28;20174;-64
2021/12/06 09:43:57;;;;;;;36.30;20.90;;;5.60;99.90;;;;;;5059033;28;20183;-65
2021/12/06 09:46:23;;;;;;;25.73;18.73;;;5.50;99.90;;;;;;5033749;28;20340;-65
2021/12/06 09:48:49;;;;;;;28.03;18.73;;;5.40;99.90;;;;;;5062074;28;20193;-65
2021/12/06 09:51:21;;;;;;;39.30;20.83;;;5.40;99.90;;;;;;5071532;28;20240;-65
2021/12/06 09:53:48;;;;;;;29.33;19.63;;;5.50;99.90;;;;;;5060816;28;20193;-65
2021/12/06 09:56:19;;;;;;;33.13;22.40;;;5.50;99.90;;;;;;5051088;28;20699;-65
2021/12/06 09:58:46;;;;;;;31.67;19.97;;;5.60;99.90;;;;;;5056824;28;20178;-65
2021/12/06 10:01:30;;;;;;;36.30;21.90;;;5.60;99.90;;;;;;5058365;28;20710;-65
2021/12/06 10:03:58;;;;;;;32.87;21.03;;;5.60;99.90;;;;;;5050853;28;20170;-65
2021/12/06 10:06:26;;;;;;;29.57;19.80;;;5.30;99.90;;;;;;5060305;28;20209;-65
2021/12/06 10:08:53;;;;;;;34.10;21.30;;;5.30;99.90;;;;;;5071245;28;20174;-65
2021/12/06 10:11:20;;;;;;;25.10;18.93;;;5.20;99.90;;;;;;5062986;28;20179;-65
2021/12/06 10:13:47;;;;;;;28.03;19.87;;;5.20;99.90;;;;;;5050891;28;20186;-65
2021/12/06 10:16:13;;;;;;;29.57;21.60;;;5.20;99.90;;;;;;5057404;28;20214;-65
2021/12/06 10:18:40;;;;;;;26.77;19.47;;;5.30;99.90;;;;;;5071242;28;20592;-65
2021/12/06 10:21:07;;;;;;;29.27;20.73;;;5.30;99.90;;;;;;5065634;28;20174;-65
2021/12/06 10:23:36;;;;;;;28.57;19.20;;;5.30;99.90;;;;;;5051226;28;20536;-65
2021/12/06 10:26:04;;;;;;;29.20;19.10;;;5.40;99.90;;;;;;5054730;28;20284;-65
2021/12/06 10:28:31;;;;;;;30.40;19.77;;;5.50;99.90;;;;;;5071211;28;20189;-65
2021/12/06 10:31:01;;;;;;;26.40;19.83;;;5.60;99.90;;;;;;5068061;28;20178;-65
2021/12/06 10:33:31;;;;;;;22.97;17.83;;;5.50;99.90;;;;;;5051101;28;20589;-64
2021/12/06 10:36:01;;;;;;;31.20;20.80;;;5.50;99.90;;;;;;5061409;28;20678;-65
2021/12/06 10:38:32;;;;;;;25.50;19.17;;;5.40;99.90;;;;;;5051168;28;20171;-65
2021/12/06 10:41:01;;;;;;;29.40;18.87;;;5.40;99.90;;;;;;5069865;28;20648;-65
2021/12/06 10:43:27;;;;;;;24.57;17.03;;;5.40;99.90;;;;;;5037286;28;20609;-65
2021/12/06 10:45:54;;;;;;;23.60;18.20;;;5.50;99.90;;;;;;5056664;28;20281;-65
2021/12/06 10:48:36;;;;;;;22.43;17.87;;;5.70;99.90;;;;;;5074704;28;20178;-65
2021/12/06 10:51:10;;;;;;;25.37;18.23;;;5.70;99.90;;;;;;5071645;28;20182;-65
2021/12/06 10:54:07;;;;;;;27.13;19.20;;;5.70;99.90;;;;;;5054544;28;20181;-65
2021/12/06 10:56:44;;;;;;;25.07;18.97;;;5.70;99.90;;;;;;5048778;28;20304;-65
2021/12/06 10:59:15;;;;;;;30.07;20.13;;;5.70;99.90;;;;;;5074565;28;20190;-65
2021/12/06 11:01:41;;;;;;;26.63;18.53;;;5.80;99.90;;;;;;5067334;28;20275;-65
2021/12/06 11:04:11;;;;;;;22.60;17.33;;;5.80;99.90;;;;;;5054030;28;20183;-65
2021/12/06 11:06:44;;;;;;;23.23;18.13;;;5.90;99.90;;;;;;5060182;28;20198;-65
2021/12/06 11:09:19;;;;;;;24.60;18.10;;;6.10;99.90;;;;;;5074508;28;20178;-65
2021/12/06 11:11:50;;;;;;;25.63;19.67;;;6.10;99.90;;;;;;5067551;28;20644;-65
2021/12/06 11:14:22;;;;;;;26.13;18.63;;;6.10;99.90;;;;;;5054004;28;20177;-66
2021/12/06 11:17:00;;;;;;;23.37;18.10;;;6.10;99.90;;;;;;5060172;28;20201;-65
2021/12/06 11:19:28;;;;;;;26.00;19.13;;;6.00;99.90;;;;;;5074379;28;20181;-65
2021/12/06 11:22:16;;;;;;;31.33;19.77;;;6.00;99.90;;;;;;5067042;28;20178;-63
2021/12/06 11:24:46;;;;;;;23.53;17.63;;;6.00;99.90;;;;;;5054160;28;20171;-65
2021/12/06 11:27:11;;;;;;;23.47;17.80;;;6.10;99.90;;;;;;5062440;28;20198;-65
2021/12/06 11:29:39;;;;;;;25.80;17.37;;;6.00;99.90;;;;;;5069872;28;20636;-65
2021/12/06 11:32:09;;;;;;;22.73;18.97;;;6.10;99.90;;;;;;5053291;28;20179;-65
2021/12/06 11:34:42;;;;;;;22.50;17.83;;;6.10;99.90;;;;;;5055461;28;20210;-64
2021/12/06 11:37:14;;;;;;;26.87;18.07;;;6.20;99.90;;;;;;5069009;28;20259;-65
2021/12/06 11:39:43;;;;;;;21.77;17.70;;;6.20;99.90;;;;;;5073262;28;20224;-64
2021/12/06 11:42:09;;;;;;;28.93;19.43;;;6.40;99.90;;;;;;5053611;28;20676;-65
2021/12/06 11:44:38;;;;;;;26.30;19.73;;;6.80;99.90;;;;;;5053887;28;20285;-65
2021/12/06 11:47:13;;;;;;;22.83;17.50;;;7.40;99.90;;;;;;5067212;28;20629;-65
2021/12/06 11:49:50;;;;;;;21.93;17.43;;;7.80;99.90;;;;;;5053684;28;20185;-66
2021/12/06 11:52:26;;;;;;;22.47;16.87;;;8.30;99.90;;;;;;5053298;28;20232;-65
2021/12/06 11:54:56;;;;;;;22.80;17.00;;;8.50;99.90;;;;;;5072240;28;20218;-65
2021/12/06 11:57:28;;;;;;;18.70;15.60;;;8.60;99.90;;;;;;5072673;28;20349;-65
2021/12/06 12:00:19;;;;;;;17.33;15.10;;;8.60;99.90;;;;;;5033405;28;20175;-64
2021/12/06 12:02:57;;;;;;;18.43;16.33;;;8.50;99.90;;;;;;5038030;28;20187;-65
2021/12/06 12:05:33;;;;;;;20.13;15.80;;;8.80;99.90;;;;;;5073490;28;20197;-65
2021/12/06 12:08:11;;;;;;;17.50;14.07;;;9.20;99.90;;;;;;5069172;28;20534;-65
2021/12/06 12:10:39;;;;;;;19.43;14.47;;;9.60;99.90;;;;;;5053449;28;20668;-65
2021/12/06 12:13:06;;;;;;;19.13;14.70;;;9.40;99.90;;;;;;5056473;28;20170;-65
2021/12/06 12:15:33;;;;;;;16.73;12.93;;;9.30;99.90;;;;;;5071450;28;20213;-65
2021/12/06 12:17:59;;;;;;;15.93;12.80;;;9.40;99.90;;;;;;5052934;28;20186;-66
2021/12/06 12:20:25;;;;;;;15.13;12.30;;;9.80;99.90;;;;;;5053036;28;20170;-65
2021/12/06 12:22:51;;;;;;;16.43;13.10;;;10.10;99.90;;;;;;5053807;28;20261;-66
2021/12/06 12:25:31;;;;;;;15.37;12.90;;;10.20;99.90;;;;;;5053193;28;20193;-65
2021/12/06 12:28:14;;;;;;;15.67;13.30;;;10.20;99.90;;;;;;5072101;28;20566;-65
2021/12/06 12:30:41;;;;;;;16.33;13.73;;;10.20;99.90;;;;;;5015213;28;20187;-65
2021/12/06 12:33:08;;;;;;;18.53;13.20;;;9.90;99.90;;;;;;5032926;28;20253;-64
2021/12/06 12:35:38;;;;;;;21.10;15.23;;;9.60;99.90;;;;;;5071125;28;20303;-64
2021/12/06 12:38:04;;;;;;;18.17;13.20;;;9.80;99.90;;;;;;5072778;28;20395;-64
2021/12/06 12:40:46;;;;;;;17.70;13.63;;;10.00;99.90;;;;;;5071280;28;20174;-65
2021/12/06 12:43:16;;;;;;;17.57;13.67;;;9.80;99.90;;;;;;5057363;28;20178;-64
2021/12/06 12:45:56;;;;;;;15.73;13.83;;;9.60;99.90;;;;;;5052867;28;20302;-64
2021/12/06 12:48:25;;;;;;;18.83;14.47;;;9.10;99.90;;;;;;5064663;28;20305;-65
2021/12/06 12:51:04;;;;;;;20.00;15.00;;;8.60;99.90;;;;;;5052759;28;20746;-63
2021/12/06 12:53:44;;;;;;;19.60;15.43;;;8.30;99.90;;;;;;5068846;28;20265;-65
2021/12/06 12:56:25;;;;;;;19.67;14.87;;;7.90;99.90;;;;;;5072559;28;20275;-65